createdAt,value
2023-05-08T05:39:10.628Z,4.80
2023-05-08T05:42:12.512Z,5.88
2023-05-08T05:45:15.008Z,3.58
2023-05-08T05:48:17.199Z,4.47
2023-05-08T05:51:18.855Z,5.93
2023-05-08T05:54:20.508Z,3.40
2023-05-08T05:57:22.422Z,5.90
2023-05-08T06:00:24.104Z,4.55
2023-05-08T06:03:25.903Z,5.43
2023-05-08T06:06:29.099Z,4.50
2023-05-08T06:09:31.039Z,5.88
2023-05-08T06:12:32.744Z,6.53
2023-05-08T06:15:34.428Z,4.53
2023-05-08T06:18:36.342Z,5.35
2023-05-08T06:21:39.781Z,5.18
2023-05-08T06:24:41.630Z,3.88
2023-05-08T06:27:43.428Z,3.75
2023-05-08T06:30:45.346Z,8.32
2023-05-08T06:33:47.054Z,8.70
2023-05-08T06:36:48.726Z,5.93
2023-05-08T06:39:57.303Z,5.53
2023-05-08T06:43:05.960Z,5.55
2023-05-08T06:46:07.745Z,4.53
2023-05-08T06:49:09.691Z,8.43
2023-05-08T06:52:11.374Z,6.70
2023-05-08T06:55:13.206Z,6.53
2023-05-08T06:58:15.294Z,5.97
2023-05-08T07:01:17.051Z,5.47
2023-05-08T07:04:18.828Z,8.40
2023-05-08T07:07:20.594Z,4.68
2023-05-08T07:10:23.023Z,6.47
2023-05-08T07:13:24.803Z,6.93
2023-05-08T07:16:26.530Z,5.35
2023-05-08T07:19:28.440Z,5.65
2023-05-08T07:22:30.262Z,5.55
2023-05-08T07:25:32.181Z,5.93
2023-05-08T07:28:34.119Z,5.15
2023-05-08T07:31:36.602Z,6.13
2023-05-08T07:34:38.342Z,5.88
2023-05-08T07:37:40.196Z,5.18
2023-05-08T07:40:41.905Z,6.85
2023-05-08T07:43:45.167Z,5.45
2023-05-08T07:46:46.868Z,4.05
2023-05-08T07:49:48.830Z,7.68
2023-05-08T07:52:50.984Z,4.15
2023-05-08T07:55:52.807Z,4.45
2023-05-08T07:58:54.486Z,5.28
2023-05-08T08:01:56.408Z,4.72
2023-05-08T08:04:58.148Z,4.50
2023-05-08T08:08:00.359Z,5.95
2023-05-08T08:11:03.801Z,5.88
2023-05-08T08:14:05.737Z,5.50
2023-05-08T08:17:08.670Z,4.93
2023-05-08T08:20:10.744Z,7.35
2023-05-08T08:23:12.402Z,7.22
2023-05-08T08:26:14.028Z,6.25
2023-05-08T08:29:16.005Z,5.82
2023-05-08T08:32:17.649Z,5.95
2023-05-08T08:35:19.373Z,7.20
2023-05-08T08:38:21.089Z,4.55
2023-05-08T08:41:23.368Z,5.53
2023-05-08T08:44:25.136Z,5.20
2023-05-08T08:47:36.929Z,6.05
2023-05-08T08:50:41.996Z,5.82
2023-05-08T08:53:44.202Z,6.63
2023-05-08T08:56:45.881Z,5.10
2023-05-08T08:59:47.825Z,5.88
2023-05-08T09:02:49.654Z,7.38
2023-05-08T09:05:51.422Z,7.72
2023-05-08T09:08:56.395Z,6.57
2023-05-08T09:11:58.056Z,5.22
2023-05-08T09:14:59.683Z,3.35
2023-05-08T09:18:02.519Z,4.80
2023-05-08T09:21:06.453Z,4.28
2023-05-08T09:24:08.136Z,2.47
2023-05-08T09:27:22.931Z,3.00
2023-05-08T09:30:24.585Z,3.53
2023-05-08T09:33:27.632Z,5.93
2023-05-08T09:36:29.347Z,5.18
2023-05-08T09:39:31.066Z,3.53
2023-05-08T09:42:38.256Z,6.95
2023-05-08T09:45:41.427Z,5.25
2023-05-08T09:48:43.469Z,5.30
2023-05-08T09:51:54.357Z,2.85
2023-05-08T09:55:00.120Z,4.40
2023-05-08T09:58:03.294Z,2.63
2023-05-08T10:01:05.063Z,4.72
2023-05-08T10:04:06.914Z,3.42
2023-05-08T10:07:08.646Z,1.73
2023-05-08T10:10:10.705Z,4.45
2023-05-08T10:13:12.584Z,2.53
2023-05-08T10:16:18.184Z,3.75
2023-05-08T10:19:24.006Z,2.72
2023-05-08T10:22:26.206Z,4.28
2023-05-08T10:25:31.850Z,3.35
2023-05-08T10:28:42.870Z,3.20
2023-05-08T10:31:45.876Z,2.05
2023-05-08T10:34:55.652Z,3.17
2023-05-08T10:37:57.506Z,3.95
2023-05-08T10:41:02.461Z,1.40
2023-05-08T10:44:04.240Z,2.78
2023-05-08T10:47:08.764Z,2.67
2023-05-08T10:50:19.230Z,1.23
2023-05-08T10:53:40.887Z,3.88
2023-05-08T10:56:42.594Z,2.92
2023-05-08T10:59:46.614Z,2.25
2023-05-08T11:02:48.358Z,4.03
2023-05-08T11:05:51.820Z,4.45
2023-05-08T11:08:54.819Z,4.78
2023-05-08T11:15:06.580Z,1.73
2023-05-08T11:18:11.727Z,3.72
2023-05-08T11:21:23.320Z,1.67
2023-05-08T11:24:36.593Z,2.72
2023-05-08T11:27:38.652Z,1.73
2023-05-08T11:30:41.388Z,3.70
2023-05-08T11:33:43.137Z,2.75
2023-05-08T11:37:01.653Z,1.73
2023-05-08T11:40:41.720Z,2.92
2023-05-08T11:43:44.152Z,5.18
2023-05-08T11:46:53.691Z,2.90
2023-05-08T11:49:55.576Z,3.08
2023-05-08T11:52:57.224Z,3.10
2023-05-08T11:56:02.023Z,5.47
2023-05-08T11:59:04.887Z,2.55
2023-05-08T12:02:09.045Z,2.40
2023-05-08T12:05:11.774Z,3.40
2023-05-08T12:08:14.200Z,6.65
2023-05-08T12:11:21.876Z,2.95
2023-05-08T12:14:23.588Z,2.28
2023-05-08T12:17:25.866Z,2.40
2023-05-08T12:20:27.644Z,2.58
2023-05-08T12:23:29.622Z,4.07
2023-05-08T12:26:35.726Z,2.17
2023-05-08T12:29:37.667Z,4.25
2023-05-08T12:32:40.651Z,1.95
2023-05-08T12:35:42.331Z,2.80
2023-05-08T12:38:44.024Z,1.42
2023-05-08T12:41:49.588Z,2.50
2023-05-08T12:44:51.984Z,2.70
2023-05-08T12:47:57.814Z,1.85
2023-05-08T12:51:03.907Z,2.70
2023-05-08T12:54:06.042Z,2.40
2023-05-08T12:57:25.825Z,2.08
2023-05-08T13:00:36.301Z,1.42
2023-05-08T13:03:38.490Z,2.65
2023-05-08T13:06:40.336Z,1.58
2023-05-08T13:09:59.729Z,2.53
2023-05-08T13:13:01.557Z,2.22
2023-05-08T13:16:04.544Z,1.02
2023-05-08T13:19:06.400Z,2.30
2023-05-08T13:22:08.019Z,0.82
2023-05-08T13:25:09.701Z,0.98
2023-05-08T13:28:11.474Z,1.38
2023-05-08T13:31:13.300Z,1.77
2023-05-08T13:34:15.182Z,2.50
2023-05-08T13:37:17.008Z,1.73
2023-05-08T13:40:18.836Z,2.33
2023-05-08T13:43:20.488Z,0.60
2023-05-08T13:46:22.174Z,1.58
2023-05-08T13:49:26.271Z,1.45
2023-05-08T13:52:30.956Z,0.70
2023-05-08T13:55:32.798Z,1.88
2023-05-08T13:58:34.723Z,1.52
2023-05-08T14:01:36.435Z,2.95
2023-05-08T14:04:38.097Z,1.55
2023-05-08T14:07:39.979Z,1.67
2023-05-08T14:10:41.709Z,1.23
2023-05-08T14:13:43.420Z,1.27
2023-05-08T14:16:45.081Z,0.98
2023-05-08T14:19:46.767Z,1.25
2023-05-08T14:22:48.473Z,1.05
2023-05-08T14:25:50.703Z,4.00
2023-05-08T14:28:52.666Z,2.05
2023-05-08T14:31:54.447Z,1.70
2023-05-08T14:34:56.285Z,1.98
2023-05-08T14:37:57.940Z,0.85
2023-05-08T14:41:03.139Z,1.80
2023-05-08T14:44:06.072Z,1.98
2023-05-08T14:47:07.715Z,1.55
2023-05-08T14:50:09.880Z,3.00
2023-05-08T14:53:11.659Z,1.08
2023-05-08T14:56:16.403Z,1.02
2023-05-08T14:59:18.536Z,1.63
2023-05-08T15:02:23.497Z,1.70
2023-05-08T15:05:25.688Z,1.63
2023-05-08T15:08:27.668Z,1.90
2023-05-08T15:11:29.377Z,1.67
2023-05-08T15:14:31.029Z,1.17
2023-05-08T15:17:36.741Z,3.55
2023-05-08T15:20:38.456Z,1.65
2023-05-08T15:23:40.114Z,2.92
2023-05-08T15:26:41.765Z,2.17
2023-05-08T15:29:43.537Z,2.90
2023-05-08T15:32:45.272Z,1.30
2023-05-08T15:35:47.033Z,1.73
2023-05-08T15:38:49.209Z,1.77
2023-05-08T15:41:50.937Z,1.85
2023-05-08T15:44:58.576Z,4.05
2023-05-08T15:48:00.608Z,3.97
2023-05-08T15:51:02.389Z,2.33
2023-05-08T15:54:04.105Z,1.52
2023-05-08T15:57:05.812Z,1.65
2023-05-08T16:00:08.168Z,2.17
2023-05-08T16:03:09.983Z,2.03
2023-05-08T16:06:11.869Z,2.17
2023-05-08T16:09:13.541Z,2.60
2023-05-08T16:12:15.237Z,1.52
2023-05-08T16:15:16.956Z,3.75
2023-05-08T16:18:18.937Z,2.05
2023-05-08T16:21:20.588Z,3.88
2023-05-08T16:24:22.241Z,2.40
2023-05-08T16:27:24.174Z,3.03
2023-05-08T16:30:25.850Z,4.57
2023-05-08T16:33:27.552Z,3.45
2023-05-08T16:36:29.355Z,2.83
2023-05-08T16:39:31.087Z,2.08
2023-05-08T16:42:32.730Z,3.17
2023-05-08T16:45:35.495Z,2.58
2023-05-08T16:48:37.183Z,3.63
2023-05-08T16:51:38.862Z,5.03
2023-05-08T16:54:40.535Z,1.70
2023-05-08T16:57:42.465Z,2.38
2023-05-08T17:00:44.364Z,5.72
2023-05-08T17:03:46.090Z,3.90
2023-05-08T17:06:47.862Z,1.83
2023-05-08T17:09:53.010Z,1.90
2023-05-08T17:12:54.865Z,3.33
2023-05-08T17:15:56.772Z,3.83
2023-05-08T17:18:59.662Z,1.85
2023-05-08T17:22:01.474Z,3.20
2023-05-08T17:25:03.339Z,1.80
2023-05-08T17:28:05.304Z,1.30
2023-05-08T17:31:07.008Z,3.38
2023-05-08T17:34:08.702Z,1.85
2023-05-08T17:37:10.786Z,2.70
2023-05-08T17:40:12.820Z,2.42
2023-05-08T17:43:14.764Z,2.65
2023-05-08T17:46:16.741Z,3.00
2023-05-08T17:49:19.591Z,2.08
2023-05-08T17:52:21.327Z,1.73
2023-05-08T17:55:23.040Z,1.70
2023-05-08T17:58:25.157Z,1.15
2023-05-08T18:01:27.575Z,0.88
2023-05-08T18:04:29.325Z,1.85
2023-05-08T18:07:31.181Z,1.40
2023-05-08T18:10:35.677Z,1.05
2023-05-08T18:13:37.367Z,1.60
2023-05-08T18:16:39.099Z,1.40
2023-05-08T18:19:41.011Z,1.92
2023-05-08T18:22:42.764Z,1.67
2023-05-08T18:25:44.529Z,1.25
2023-05-08T18:28:46.456Z,2.13
2023-05-08T18:31:48.141Z,2.33
2023-05-08T18:34:49.818Z,1.02
2023-05-08T18:37:51.729Z,3.35
2023-05-08T18:40:54.358Z,2.60
2023-05-08T18:43:56.378Z,2.20
2023-05-08T18:46:58.022Z,3.25
2023-05-08T18:50:00.354Z,1.42
2023-05-08T18:53:02.133Z,1.65
2023-05-08T18:56:04.248Z,1.10
2023-05-08T18:59:05.941Z,1.75
2023-05-08T19:02:07.619Z,1.88
2023-05-08T19:05:09.505Z,1.10
2023-05-08T19:08:13.008Z,1.50
2023-05-08T19:11:14.729Z,1.55
2023-05-08T19:14:16.380Z,1.35
2023-05-08T19:17:18.370Z,1.52
2023-05-08T19:20:20.296Z,0.93
2023-05-08T19:23:22.081Z,0.90
2023-05-08T19:26:23.707Z,1.00
2023-05-08T19:29:25.644Z,0.63
2023-05-08T19:32:27.643Z,1.60
2023-05-08T19:35:29.340Z,1.05
2023-05-08T19:38:31.085Z,0.70
2023-05-08T19:41:32.718Z,2.00
2023-05-08T19:44:34.384Z,1.45
2023-05-08T19:47:36.414Z,0.35
2023-05-08T19:50:38.185Z,1.23
2023-05-08T19:53:40.000Z,0.52
2023-05-08T19:56:41.638Z,1.75
2023-05-08T19:59:43.550Z,0.75
2023-05-08T20:02:45.299Z,1.45
2023-05-08T20:05:47.026Z,2.97
2023-05-08T20:08:48.832Z,0.98
2023-05-08T20:11:50.581Z,2.53
2023-05-08T20:14:53.395Z,2.35
2023-05-08T20:17:55.664Z,3.10
2023-05-08T20:20:57.393Z,2.28
2023-05-08T20:24:00.169Z,2.85
2023-05-08T20:27:02.000Z,2.40
2023-05-08T20:30:04.723Z,2.67
2023-05-08T20:33:06.445Z,3.63
2023-05-08T20:36:08.215Z,3.22
2023-05-08T20:39:09.906Z,4.47
2023-05-08T20:42:11.850Z,4.05
2023-05-08T20:45:13.501Z,6.22
2023-05-08T20:48:15.300Z,5.25
2023-05-08T20:51:16.997Z,7.20
2023-05-08T20:54:18.721Z,5.40
2023-05-08T20:57:20.571Z,4.20
2023-05-08T21:00:22.316Z,6.45
2023-05-08T21:03:24.092Z,4.65
2023-05-08T21:06:25.768Z,5.88
2023-05-08T21:09:27.744Z,6.05
2023-05-08T21:12:29.409Z,6.82
2023-05-08T21:15:31.569Z,5.68
